EET,Max TemperatureF,Mean TemperatureF,Min TemperatureF,Max Dew PointF,MeanDew PointF,Min DewpointF,Max Humidity, Mean Humidity, Min Humidity, Max Sea Level PressureIn, Mean Sea Level PressureIn, Min Sea Level PressureIn, Max VisibilityMiles, Mean VisibilityMiles, Min VisibilityMiles, Max Wind SpeedMPH, Mean Wind SpeedMPH, Max Gust SpeedMPH,PrecipitationIn, CloudCover, Events, WindDirDegrees
2013-3-1,89,70,52,36,30,27,32,20,7,30.01,29.94,29.88,6,6,6,14,10,,0.00,,,3
2013-3-2,95,78,60,37,31,21,30,19,6,29.98,29.93,29.86,6,6,6,10,6,,0.00,,,3
2013-3-3,98,82,65,36,31,25,25,15,5,29.98,29.91,29.83,6,6,6,12,4,,0.00,,,169
2013-3-4,96,82,67,36,31,25,28,17,8,29.98,29.92,29.86,6,6,6,14,5,,0.00,,,357
2013-3-5,86,71,56,39,36,30,34,24,14,30.04,29.99,29.93,6,6,6,14,9,,0.00,,,354
2013-3-6,81,69,57,43,34,23,51,27,9,30.12,30.04,29.98,6,6,6,14,8,,0.00,,,359
2013-3-7,87,70,53,41,31,23,31,23,8,30.07,29.99,29.92,6,6,6,9,6,,0.00,,,5
2013-3-8,90,75,60,45,36,23,45,25,6,29.95,29.90,29.83,6,6,6,15,5,,0.00,,,320
2013-3-9,87,76,64,37,32,25,28,19,8,30.01,29.94,29.89,6,5,5,13,7,,0.00,,,350
2013-3-10,84,72,61,41,36,30,39,26,10,30.06,30.01,29.95,6,6,6,12,6,,0.00,,,349
2013-3-11,92,76,59,43,39,36,51,27,11,30.09,29.99,29.89,6,6,6,13,8,,0.00,,,30
2013-3-12,97,78,60,37,33,27,36,19,6,30.01,29.93,29.83,6,6,6,12,7,,0.00,,,333
2013-3-13,100,83,66,37,33,23,33,16,5,29.92,29.87,29.80,6,6,6,7,5,,0.00,,,14
2013-3-14,99,84,70,59,42,25,30,22,12,29.89,29.82,29.76,6,4,2,10,4,,0.00,,,3
2013-3-15,102,87,72,64,54,32,54,33,13,29.83,29.78,29.71,6,6,6,12,6,,0.00,,,109
2013-3-16,98,83,68,46,37,19,29,18,8,29.95,29.84,29.77,6,4,1,17,8,,0.00,,,339
2013-3-17,80,70,61,36,30,27,32,22,8,30.04,29.98,29.95,6,4,2,17,13,,0.00,,,343
2013-3-18,80,68,57,39,35,27,51,30,16,30.04,29.97,29.89,6,6,6,15,9,,0.00,3,,347
2013-3-19,86,70,55,37,34,28,51,26,9,29.94,29.86,29.79,6,6,6,8,6,,0.00,,,335
2013-3-20,90,74,57,37,33,23,34,21,8,29.95,29.89,29.83,6,6,6,8,6,,0.00,,,347
2013-3-21,96,79,62,36,33,30,28,16,6,29.98,29.88,29.81,6,6,6,7,3,,0.00,,,9
2013-3-22,97,81,65,43,35,28,45,19,5,29.89,29.82,29.73,6,3,0,18,5,,0.00,,,338
2013-3-23,86,74,63,41,35,27,37,23,8,29.98,29.92,29.86,5,2,1,16,13,,0.00,,,355
2013-3-24,87,72,58,37,32,25,39,22,8,30.01,29.96,29.91,6,6,6,15,8,,0.00,,,358
2013-3-25,91,75,59,37,29,23,36,19,4,30.01,29.93,29.83,6,6,6,12,7,,0.00,,,350
2013-3-26,95,80,64,39,31,19,24,17,10,29.92,29.85,29.80,6,6,6,12,6,,0.00,,,321
2013-3-27,92,80,67,34,29,21,23,15,6,29.95,29.89,29.83,6,4,4,14,8,,0.00,,,354
2013-3-28,90,76,61,37,31,25,32,18,6,29.98,29.93,29.86,6,6,6,12,8,,0.00,,,355
2013-3-29,94,78,62,36,29,21,30,16,5,29.95,29.89,29.81,6,6,6,9,7,,0.00,,,347
2013-3-30,98,81,64,37,32,27,26,15,5,29.92,29.84,29.75,6,6,6,9,5,,0.00,,,6
2013-3-31,101,84,67,48,37,28,27,18,9,29.89,29.84,29.75,6,6,6,12,6,,0.00,,,207